Time;durP1;ratioP1;P1;durP2;ratioP2;P2;SDS_P1;SDS_P2;PMS_P1;PMS_P2;Temp;Humidity;BMP_temperature;BMP_pressure;BME280_temperature;BME280_humidity;BME280_pressure;Samples;Min_cycle;Max_cycle;Signal;HPM_P1;HPM_P2
2021/06/17 00:00:39;;;;;;;13.73;12.53;;;;;;;;;;5073687;28;20485;-58
2021/06/17 00:03:07;;;;;;;14.80;12.73;;;;;;;;;;5074095;28;20941;-58
2021/06/17 00:05:36;;;;;;;14.90;13.50;;;;;;;;;;5074941;28;21001;-58
2021/06/17 00:08:04;;;;;;;13.57;12.27;;;;;;;;;;5074257;28;20831;-58
2021/06/17 00:10:32;;;;;;;13.50;12.30;;;;;;;;;;5074516;28;20456;-59
2021/06/17 00:13:01;;;;;;;13.53;12.33;;;;;;;;;;5074543;28;20496;-59
2021/06/17 00:15:28;;;;;;;13.80;12.47;;;;;;;;;;5074623;28;20457;-59
2021/06/17 00:17:57;;;;;;;14.90;13.60;;;;;;;;;;5074833;28;20461;-59
2021/06/17 00:20:24;;;;;;;14.43;13.13;;;;;;;;;;5074643;28;20509;-59
2021/06/17 00:22:53;;;;;;;14.50;13.20;;;;;;;;;;5075514;28;20474;-58
2021/06/17 00:25:20;;;;;;;13.90;12.70;;;;;;;;;;5081045;28;20443;-59
2021/06/17 00:27:47;;;;;;;14.33;12.90;;;;;;;;;;5079068;28;20539;-59
2021/06/17 00:30:15;;;;;;;14.33;12.93;;;;;;;;;;5077590;28;20447;-59
2021/06/17 00:32:43;;;;;;;13.60;12.37;;;;;;;;;;5077270;28;20482;-59
2021/06/17 00:35:11;;;;;;;13.10;11.90;;;;;;;;;;5076972;28;20451;-58
2021/06/17 00:37:38;;;;;;;13.80;12.40;;;;;;;;;;5076977;28;20473;-59
2021/06/17 00:40:08;;;;;;;12.97;11.87;;;;;;;;;;5077995;28;20432;-59
2021/06/17 00:42:36;;;;;;;13.50;12.30;;;;;;;;;;5077993;28;20565;-59
2021/06/17 00:45:04;;;;;;;13.83;12.63;;;;;;;;;;5078382;28;20493;-59
2021/06/17 00:47:32;;;;;;;13.17;11.97;;;;;;;;;;5078164;28;20465;-59
2021/06/17 00:49:59;;;;;;;13.73;12.63;;;;;;;;;;5077574;28;20449;-59
2021/06/17 00:52:26;;;;;;;13.83;12.63;;;;;;;;;;5077890;28;20446;-59
2021/06/17 00:54:53;;;;;;;13.73;12.53;;;;;;;;;;5077328;28;20445;-59
2021/06/17 00:57:22;;;;;;;13.73;12.43;;;;;;;;;;5078275;28;20521;-58
2021/06/17 00:59:49;;;;;;;14.30;13.10;;;;;;;;;;5078144;28;20501;-59
2021/06/17 01:02:16;;;;;;;13.83;12.50;;;;;;;;;;5078049;28;20444;-59
2021/06/17 01:04:44;;;;;;;14.40;13.20;;;;;;;;;;5077447;28;20501;-59
2021/06/17 01:07:11;;;;;;;14.80;13.40;;;;;;;;;;5077302;28;20536;-59
2021/06/17 01:09:43;;;;;;;14.30;12.90;;;;;;;;;;5076974;28;20937;-59
2021/06/17 01:12:13;;;;;;;14.23;12.93;;;;;;;;;;5076540;28;20888;-59
2021/06/17 01:14:47;;;;;;;13.90;12.60;;;;;;;;;;5076767;28;20533;-59
2021/06/17 01:17:16;;;;;;;12.87;11.80;;;;;;;;;;5076638;28;20428;-60
2021/06/17 01:19:52;;;;;;;13.33;12.13;;;;;;;;;;5076411;28;20451;-59
2021/06/17 01:22:29;;;;;;;15.13;12.33;;;;;;;;;;5075907;28;20490;-59
2021/06/17 01:25:14;;;;;;;13.83;12.53;;;;;;;;;;5076305;28;20466;-59
2021/06/17 01:28:10;;;;;;;13.63;12.47;;;;;;;;;;5076426;28;20466;-59
2021/06/17 01:30:43;;;;;;;14.43;13.10;;;;;;;;;;5076638;28;20430;-59
2021/06/17 01:33:11;;;;;;;14.23;13.00;;;;;;;;;;5075831;28;20459;-59
2021/06/17 01:35:42;;;;;;;13.30;12.10;;;;;;;;;;5075096;28;20942;-59
2021/06/17 01:38:10;;;;;;;14.03;12.80;;;;;;;;;;5075661;28;20490;-59
2021/06/17 01:40:37;;;;;;;13.83;12.63;;;;;;;;;;5076058;28;20509;-59
2021/06/17 01:43:05;;;;;;;14.73;13.40;;;;;;;;;;5075884;28;20451;-59
2021/06/17 01:45:33;;;;;;;13.57;12.23;;;;;;;;;;5076174;28;20497;-59
2021/06/17 01:48:02;;;;;;;14.50;13.30;;;;;;;;;;5075387;28;21043;-59
2021/06/17 01:50:30;;;;;;;12.47;11.27;;;;;;;;;;5075975;28;20520;-58
2021/06/17 01:52:58;;;;;;;14.17;12.90;;;;;;;;;;5075438;28;20986;-59
2021/06/17 01:55:29;;;;;;;14.73;13.33;;;;;;;;;;5075685;28;20815;-59
2021/06/17 01:57:57;;;;;;;15.03;13.47;;;;;;;;;;5075553;28;20558;-59
2021/06/17 02:00:25;;;;;;;14.87;13.37;;;;;;;;;;5075531;28;20504;-59
2021/06/17 02:02:52;;;;;;;14.70;13.37;;;;;;;;;;5075495;28;20451;-59
2021/06/17 02:05:23;;;;;;;13.67;12.50;;;;;;;;;;5075564;28;20447;-59
2021/06/17 02:07:51;;;;;;;12.80;11.80;;;;;;;;;;5075636;28;20510;-59
2021/06/17 02:10:19;;;;;;;14.83;13.53;;;;;;;;;;5075619;28;20451;-59
2021/06/17 02:12:47;;;;;;;14.73;13.50;;;;;;;;;;5075585;28;20435;-58
2021/06/17 02:15:15;;;;;;;14.47;13.10;;;;;;;;;;5075286;28;20475;-60
2021/06/17 02:17:43;;;;;;;15.00;13.60;;;;;;;;;;5075692;28;20528;-59
2021/06/17 02:20:11;;;;;;;14.50;13.20;;;;;;;;;;5076602;28;20451;-59
2021/06/17 02:22:42;;;;;;;15.07;13.70;;;;;;;;;;5075844;28;20439;-58
2021/06/17 02:25:10;;;;;;;16.07;14.30;;;;;;;;;;5076132;28;20493;-58
2021/06/17 02:27:38;;;;;;;15.43;14.23;;;;;;;;;;5076599;28;20463;-58
2021/06/17 02:30:08;;;;;;;16.47;14.87;;;;;;;;;;5075803;28;20447;-59
2021/06/17 02:32:37;;;;;;;24.10;14.40;;;;;;;;;;5075248;28;20521;-59
2021/06/17 02:35:04;;;;;;;15.97;14.10;;;;;;;;;;5075231;28;20475;-59
2021/06/17 02:37:32;;;;;;;14.40;13.10;;;;;;;;;;5074639;28;20558;-59
2021/06/17 02:40:01;;;;;;;16.03;14.37;;;;;;;;;;5075079;28;20423;-59
2021/06/17 02:42:30;;;;;;;14.90;13.60;;;;;;;;;;5075172;28;20455;-59
2021/06/17 02:44:57;;;;;;;15.13;13.73;;;;;;;;;;5074927;28;20439;-58
2021/06/17 02:47:25;;;;;;;15.60;14.13;;;;;;;;;;5073458;28;20497;-60
2021/06/17 02:49:52;;;;;;;15.67;14.27;;;;;;;;;;5074652;28;20447;-58
2021/06/17 02:52:19;;;;;;;14.43;13.17;;;;;;;;;;5074496;28;20447;-59
2021/06/17 02:54:47;;;;;;;16.73;14.97;;;;;;;;;;5074352;28;20479;-59
2021/06/17 02:57:17;;;;;;;16.93;15.43;;;;;;;;;;5074346;28;20451;-59
2021/06/17 02:59:59;;;;;;;17.13;15.63;;;;;;;;;;5074395;28;20443;-59
2021/06/17 03:02:34;;;;;;;17.53;15.23;;;;;;;;;;5072142;28;20451;-58
2021/06/17 03:05:06;;;;;;;16.00;14.40;;;;;;;;;;5073894;28;20419;-59
2021/06/17 03:07:35;;;;;;;16.23;14.77;;;;;;;;;;5073842;28;20516;-59
2021/06/17 03:10:04;;;;;;;16.70;14.90;;;;;;;;;;5074359;28;20442;-59
2021/06/17 03:12:34;;;;;;;17.00;15.17;;;;;;;;;;5074442;28;20630;-59
2021/06/17 03:15:03;;;;;;;16.70;15.30;;;;;;;;;;5074191;28;20471;-59
2021/06/17 03:17:31;;;;;;;15.43;14.00;;;;;;;;;;5074255;28;20463;-60
2021/06/17 03:20:01;;;;;;;15.50;14.20;;;;;;;;;;5074232;28;20490;-59
2021/06/17 03:22:29;;;;;;;15.50;14.00;;;;;;;;;;5074075;28;20497;-60
2021/06/17 03:24:58;;;;;;;16.00;14.63;;;;;;;;;;5074381;28;20439;-59
2021/06/17 03:27:26;;;;;;;16.47;14.80;;;;;;;;;;5073695;28;22153;-58
2021/06/17 03:29:56;;;;;;;15.67;14.37;;;;;;;;;;5074212;28;20501;-58
2021/06/17 03:32:26;;;;;;;16.07;14.67;;;;;;;;;;5073912;28;20451;-58
2021/06/17 03:34:53;;;;;;;15.60;14.00;;;;;;;;;;5073847;28;20479;-59
2021/06/17 03:37:21;;;;;;;15.20;14.00;;;;;;;;;;5074027;28;20439;-59
2021/06/17 03:39:51;;;;;;;15.53;14.20;;;;;;;;;;5073949;28;20523;-59
2021/06/17 03:42:19;;;;;;;16.30;14.73;;;;;;;;;;5073838;28;20447;-59
2021/06/17 03:44:47;;;;;;;13.83;12.63;;;;;;;;;;5073376;28;20851;-59
2021/06/17 03:47:16;;;;;;;15.37;14.17;;;;;;;;;;5073262;28;20939;-59
2021/06/17 03:49:44;;;;;;;14.90;13.57;;;;;;;;;;5073340;28;20451;-59
2021/06/17 03:52:11;;;;;;;15.23;13.93;;;;;;;;;;5073787;28;20470;-59
2021/06/17 03:54:38;;;;;;;16.80;13.40;;;;;;;;;;5073012;28;20471;-58
2021/06/17 03:57:06;;;;;;;14.20;12.90;;;;;;;;;;5073134;28;20443;-58
2021/06/17 03:59:36;;;;;;;14.37;13.20;;;;;;;;;;5073128;28;20473;-58
2021/06/17 04:02:03;;;;;;;12.27;11.07;;;;;;;;;;5073422;28;20500;-57
2021/06/17 04:04:32;;;;;;;12.47;11.37;;;;;;;;;;5073236;28;20455;-58
2021/06/17 04:08:13;;;;;;;13.13;11.90;;;;;;;;;;5152792;27;20535;-59
2021/06/17 04:10:41;;;;;;;12.60;11.50;;;;;;;;;;5152485;27;20445;-57
2021/06/17 04:13:09;;;;;;;13.50;11.87;;;;;;;;;;5152401;27;20444;-58
2021/06/17 04:15:37;;;;;;;13.80;12.40;;;;;;;;;;5152298;27;20446;-59
2021/06/17 04:18:05;;;;;;;11.50;10.50;;;;;;;;;;5151833;27;20505;-59
2021/06/17 04:20:34;;;;;;;11.77;10.67;;;;;;;;;;5152187;27;20484;-59
2021/06/17 04:23:02;;;;;;;13.33;12.03;;;;;;;;;;5151917;27;20502;-59
2021/06/17 04:25:31;;;;;;;12.17;10.70;;;;;;;;;;5152122;27;20487;-59
2021/06/17 04:28:00;;;;;;;12.73;11.60;;;;;;;;;;5151640;27;20477;-59
2021/06/17 04:30:28;;;;;;;11.80;10.70;;;;;;;;;;5152145;27;20442;-59
2021/06/17 04:32:57;;;;;;;12.50;11.40;;;;;;;;;;5152026;27;20446;-59
2021/06/17 04:35:24;;;;;;;12.60;11.40;;;;;;;;;;5151686;27;20439;-60
2021/06/17 04:37:59;;;;;;;11.87;10.97;;;;;;;;;;5152475;27;20465;-59
2021/06/17 04:40:26;;;;;;;11.87;10.87;;;;;;;;;;5151441;27;20476;-59
2021/06/17 04:42:56;;;;;;;10.60;9.70;;;;;;;;;;5151971;27;20445;-59
2021/06/17 04:45:24;;;;;;;12.10;11.20;;;;;;;;;;5152180;27;20816;-59
2021/06/17 04:47:52;;;;;;;12.23;11.13;;;;;;;;;;5151523;27;20482;-59
2021/06/17 04:50:20;;;;;;;20.77;12.30;;;;;;;;;;5151081;27;20447;-60
2021/06/17 04:53:17;;;;;;;12.00;10.80;;;;;;;;;;5151246;27;20446;-59
2021/06/17 04:55:48;;;;;;;14.93;13.63;;;;;;;;;;5067368;28;20429;-60
2021/06/17 04:58:18;;;;;;;12.40;11.30;;;;;;;;;;5134797;27;20467;-60
2021/06/17 05:00:45;;;;;;;12.20;10.43;;;;;;;;;;5151477;27;20437;-61
2021/06/17 05:03:12;;;;;;;10.90;9.90;;;;;;;;;;5151178;27;20434;-60
2021/06/17 05:05:39;;;;;;;11.63;10.43;;;;;;;;;;5151514;27;20495;-61
2021/06/17 05:10:59;;;;;;;12.00;10.80;;;;;;;;;;5092936;27;20842;-61
2021/06/17 05:13:29;;;;;;;10.20;9.20;;;;;;;;;;5151393;27;20431;-61
2021/06/17 05:15:56;;;;;;;11.23;10.10;;;;;;;;;;5151573;27;20824;-60
2021/06/17 05:18:24;;;;;;;11.13;10.03;;;;;;;;;;5144159;27;20516;-61
2021/06/17 05:20:51;;;;;;;11.83;10.73;;;;;;;;;;5137148;27;20478;-60
2021/06/17 05:23:21;;;;;;;11.97;10.93;;;;;;;;;;5137259;27;20810;-61
2021/06/17 05:25:49;;;;;;;11.63;10.30;;;;;;;;;;5137454;27;20447;-60
2021/06/17 05:28:17;;;;;;;12.00;10.80;;;;;;;;;;5137384;27;20483;-61
2021/06/17 05:30:46;;;;;;;10.67;9.70;;;;;;;;;;5137115;27;20444;-61
2021/06/17 05:33:13;;;;;;;12.87;11.60;;;;;;;;;;5137467;27;20448;-60
2021/06/17 05:35:41;;;;;;;11.43;9.83;;;;;;;;;;5137227;27;20444;-61
2021/06/17 05:38:08;;;;;;;11.40;10.47;;;;;;;;;;5137896;27;20452;-59
2021/06/17 05:40:35;;;;;;;11.33;9.80;;;;;;;;;;5137189;27;20892;-61
2021/06/17 05:43:03;;;;;;;9.93;9.20;;;;;;;;;;5137226;27;20452;-59
2021/06/17 05:45:30;;;;;;;16.77;10.67;;;;;;;;;;5136801;27;20444;-61
2021/06/17 05:47:58;;;;;;;10.80;9.80;;;;;;;;;;5137041;27;20560;-61
2021/06/17 05:50:26;;;;;;;10.00;9.20;;;;;;;;;;5136815;27;20436;-60
2021/06/17 05:52:53;;;;;;;10.57;9.70;;;;;;;;;;5136967;27;20501;-60
2021/06/17 05:55:20;;;;;;;13.30;11.07;;;;;;;;;;5136538;27;20444;-61
2021/06/17 05:57:48;;;;;;;10.77;9.67;;;;;;;;;;5136334;27;20959;-60
2021/06/17 06:00:16;;;;;;;10.47;9.17;;;;;;;;;;5136085;27;20444;-61
2021/06/17 06:02:43;;;;;;;11.37;10.17;;;;;;;;;;5136349;27;20792;-60
2021/06/17 06:05:12;;;;;;;11.43;10.30;;;;;;;;;;5136661;27;20494;-61
2021/06/17 06:07:39;;;;;;;10.83;10.03;;;;;;;;;;5136240;27;20537;-61
2021/06/17 06:10:07;;;;;;;11.57;10.37;;;;;;;;;;5136041;27;20476;-60
2021/06/17 06:12:34;;;;;;;11.80;10.60;;;;;;;;;;5136538;27;20440;-60
2021/06/17 06:15:02;;;;;;;11.73;9.70;;;;;;;;;;5137298;27;20497;-59
2021/06/17 06:17:29;;;;;;;10.50;9.60;;;;;;;;;;5139350;27;20457;-61
2021/06/17 06:19:56;;;;;;;10.93;10.10;;;;;;;;;;5140737;27;20441;-61
2021/06/17 06:22:25;;;;;;;11.33;10.33;;;;;;;;;;5140406;27;20493;-60
2021/06/17 06:24:52;;;;;;;11.33;10.33;;;;;;;;;;5138974;27;20497;-60
2021/06/17 06:27:20;;;;;;;10.43;9.37;;;;;;;;;;5136204;27;20516;-60
2021/06/17 06:29:47;;;;;;;10.33;9.53;;;;;;;;;;5134973;27;20532;-59
2021/06/17 06:32:14;;;;;;;11.83;10.60;;;;;;;;;;5136137;27;20443;-60
2021/06/17 06:34:41;;;;;;;12.87;11.07;;;;;;;;;;5136122;27;20538;-60
2021/06/17 06:37:09;;;;;;;11.70;10.30;;;;;;;;;;5135878;27;20447;-60
2021/06/17 06:39:37;;;;;;;11.53;10.27;;;;;;;;;;5135558;27;20933;-59
2021/06/17 06:42:05;;;;;;;11.40;10.30;;;;;;;;;;5135492;27;20447;-60
2021/06/17 06:44:32;;;;;;;10.67;9.63;;;;;;;;;;5135900;27;20939;-59
2021/06/17 06:46:59;;;;;;;11.13;9.97;;;;;;;;;;5135655;27;20477;-59
2021/06/17 06:49:27;;;;;;;10.90;10.03;;;;;;;;;;5135358;27;20898;-60
2021/06/17 06:51:54;;;;;;;12.17;11.00;;;;;;;;;;5135363;27;20495;-60
2021/06/17 06:54:21;;;;;;;10.93;9.93;;;;;;;;;;5135180;27;21011;-59
2021/06/17 06:56:50;;;;;;;11.00;9.90;;;;;;;;;;5135040;27;20492;-60
2021/06/17 06:59:18;;;;;;;10.37;9.37;;;;;;;;;;5135416;27;20462;-60
2021/06/17 07:01:46;;;;;;;11.03;10.13;;;;;;;;;;5135150;27;20933;-59
2021/06/17 07:04:13;;;;;;;12.60;10.40;;;;;;;;;;5135456;27;20449;-60
2021/06/17 07:06:41;;;;;;;12.33;11.43;;;;;;;;;;5134907;27;20808;-58
2021/06/17 07:09:08;;;;;;;10.80;9.80;;;;;;;;;;5134752;27;20462;-59
2021/06/17 07:11:37;;;;;;;12.03;10.40;;;;;;;;;;5135234;27;20454;-60
2021/06/17 07:14:06;;;;;;;10.97;9.90;;;;;;;;;;5135179;27;20959;-59
2021/06/17 07:16:34;;;;;;;9.90;9.20;;;;;;;;;;5135230;27;20451;-60
2021/06/17 07:19:02;;;;;;;10.40;9.50;;;;;;;;;;5135185;27;20462;-61
2021/06/17 07:21:30;;;;;;;10.67;9.60;;;;;;;;;;5135489;27;20849;-59
2021/06/17 07:23:57;;;;;;;10.17;9.37;;;;;;;;;;5135877;27;20441;-60
2021/06/17 07:26:27;;;;;;;11.50;10.40;;;;;;;;;;5135220;27;20514;-61
2021/06/17 07:28:55;;;;;;;10.93;10.00;;;;;;;;;;5134500;27;20481;-59
2021/06/17 07:31:23;;;;;;;13.27;9.23;;;;;;;;;;5135069;27;20548;-60
2021/06/17 07:33:51;;;;;;;9.57;8.80;;;;;;;;;;5134416;27;20502;-59
2021/06/17 07:36:18;;;;;;;10.10;9.20;;;;;;;;;;5134561;27;20455;-59
2021/06/17 07:38:46;;;;;;;9.23;8.53;;;;;;;;;;5134704;27;20459;-60
2021/06/17 07:41:13;;;;;;;10.03;9.13;;;;;;;;;;5134522;27;20446;-60
2021/06/17 07:43:40;;;;;;;9.87;8.40;;;;;;;;;;5134407;27;20450;-60
2021/06/17 07:46:08;;;;;;;10.57;9.63;;;;;;;;;;5134042;27;20933;-60
2021/06/17 07:48:37;;;;;;;9.77;9.00;;;;;;;;;;5133812;27;20483;-59
2021/06/17 07:51:05;;;;;;;10.50;9.60;;;;;;;;;;5134489;27;20479;-60
2021/06/17 07:53:32;;;;;;;11.27;10.20;;;;;;;;;;5134359;27;20450;-60
2021/06/17 07:55:59;;;;;;;10.43;9.43;;;;;;;;;;5134703;27;20446;-60
2021/06/17 07:58:27;;;;;;;9.93;9.07;;;;;;;;;;5133921;27;20518;-58
2021/06/17 08:00:54;;;;;;;9.97;9.10;;;;;;;;;;5134469;27;20520;-59
2021/06/17 08:03:21;;;;;;;11.63;10.63;;;;;;;;;;5134270;27;20549;-61
2021/06/17 08:05:50;;;;;;;10.67;9.67;;;;;;;;;;5133598;28;20869;-59
2021/06/17 08:08:18;;;;;;;9.67;8.87;;;;;;;;;;5133803;28;20485;-60
2021/06/17 08:10:45;;;;;;;10.13;9.33;;;;;;;;;;5133491;28;20911;-59
2021/06/17 08:13:12;;;;;;;10.73;9.70;;;;;;;;;;5134065;28;20515;-58
2021/06/17 08:15:39;;;;;;;11.47;10.50;;;;;;;;;;5133824;28;20954;-59
2021/06/17 08:18:07;;;;;;;9.70;8.80;;;;;;;;;;5133541;28;20464;-59
2021/06/17 08:20:34;;;;;;;15.53;12.13;;;;;;;;;;5133615;28;20563;-59
2021/06/17 08:23:03;;;;;;;13.50;9.37;;;;;;;;;;5133731;28;20454;-60
2021/06/17 08:25:32;;;;;;;9.20;8.40;;;;;;;;;;5133370;28;20446;-59
2021/06/17 08:28:03;;;;;;;9.97;9.17;;;;;;;;;;5134089;28;20493;-59
2021/06/17 08:30:31;;;;;;;10.40;9.50;;;;;;;;;;5133942;28;20430;-58
2021/06/17 08:32:58;;;;;;;11.23;9.37;;;;;;;;;;5134374;28;20951;-59
2021/06/17 08:35:26;;;;;;;10.57;9.57;;;;;;;;;;5133662;28;20444;-60
2021/06/17 08:37:54;;;;;;;9.23;8.43;;;;;;;;;;5133298;28;20466;-59
2021/06/17 08:40:24;;;;;;;9.90;9.10;;;;;;;;;;5133500;28;20830;-60
2021/06/17 08:42:51;;;;;;;9.63;8.70;;;;;;;;;;5133137;28;20451;-60
2021/06/17 08:45:18;;;;;;;10.43;9.10;;;;;;;;;;5133070;28;20453;-59
2021/06/17 08:47:46;;;;;;;9.70;8.80;;;;;;;;;;5133523;28;20478;-60
2021/06/17 08:50:15;;;;;;;8.77;7.90;;;;;;;;;;5133808;28;20457;-60
2021/06/17 08:52:43;;;;;;;9.50;8.60;;;;;;;;;;5133609;27;20448;-60
2021/06/17 08:55:15;;;;;;;9.37;8.67;;;;;;;;;;5137297;27;20449;-59
2021/06/17 08:57:43;;;;;;;9.23;8.43;;;;;;;;;;5136978;27;21035;-60
2021/06/17 09:00:25;;;;;;;8.83;8.00;;;;;;;;;;5137289;27;20451;-60
2021/06/17 09:02:54;;;;;;;8.73;7.83;;;;;;;;;;5134554;27;20802;-59
2021/06/17 09:05:22;;;;;;;9.20;8.30;;;;;;;;;;5137073;27;20530;-60
2021/06/17 09:07:50;;;;;;;9.53;8.53;;;;;;;;;;5136661;27;20484;-61
2021/06/17 09:10:17;;;;;;;9.67;8.77;;;;;;;;;;5137174;27;20454;-60
2021/06/17 09:12:46;;;;;;;8.30;7.30;;;;;;;;;;5137065;27;20446;-60
2021/06/17 09:15:14;;;;;;;8.03;7.33;;;;;;;;;;5137309;27;20438;-60
2021/06/17 09:17:41;;;;;;;7.80;7.00;;;;;;;;;;5136645;27;20490;-60
2021/06/17 09:20:10;;;;;;;9.07;6.53;;;;;;;;;;5137049;27;20793;-59
2021/06/17 09:22:39;;;;;;;6.90;6.20;;;;;;;;;;5136748;27;20454;-60
2021/06/17 09:25:07;;;;;;;7.30;6.43;;;;;;;;;;5136561;27;20871;-60
2021/06/17 09:27:38;;;;;;;8.00;7.30;;;;;;;;;;5136596;27;20467;-60
2021/06/17 09:30:22;;;;;;;7.97;7.10;;;;;;;;;;5136569;27;20452;-59
2021/06/17 09:32:52;;;;;;;10.53;6.90;;;;;;;;;;5134603;27;20458;-60
2021/06/17 09:35:21;;;;;;;7.80;7.20;;;;;;;;;;5136517;27;20927;-61
2021/06/17 09:37:48;;;;;;;7.57;6.87;;;;;;;;;;5136281;27;20512;-61
2021/06/17 09:40:22;;;;;;;7.60;6.13;;;;;;;;;;5136305;27;20447;-58
2021/06/17 09:42:50;;;;;;;13.03;6.60;;;;;;;;;;5136482;27;20450;-60
2021/06/17 09:45:18;;;;;;;8.17;7.40;;;;;;;;;;5137099;27;20447;-59
2021/06/17 09:47:45;;;;;;;7.80;5.80;;;;;;;;;;5136419;27;20472;-60
2021/06/17 09:50:24;;;;;;;6.43;5.83;;;;;;;;;;5136504;27;20457;-60
2021/06/17 09:52:51;;;;;;;7.20;5.67;;;;;;;;;;5136009;27;20448;-60
2021/06/17 09:55:38;;;;;;;7.70;5.70;;;;;;;;;;5136287;27;20439;-61
2021/06/17 09:58:05;;;;;;;7.23;5.67;;;;;;;;;;5136231;27;21003;-60
2021/06/17 10:00:32;;;;;;;5.93;5.43;;;;;;;;;;5136219;27;20982;-61
2021/06/17 10:03:15;;;;;;;6.63;6.03;;;;;;;;;;5136451;27;20485;-60
2021/06/17 10:05:44;;;;;;;6.33;5.83;;;;;;;;;;5136042;27;20464;-62
2021/06/17 10:08:11;;;;;;;5.73;5.23;;;;;;;;;;5136286;27;20484;-60
2021/06/17 10:10:38;;;;;;;6.00;5.40;;;;;;;;;;5135720;27;20448;-61
2021/06/17 10:13:07;;;;;;;6.57;5.10;;;;;;;;;;5136002;27;20835;-60
2021/06/17 10:15:35;;;;;;;6.33;5.17;;;;;;;;;;5136607;27;20459;-60
2021/06/17 10:18:02;;;;;;;5.70;5.30;;;;;;;;;;5136138;27;20464;-58
2021/06/17 10:20:29;;;;;;;6.17;5.67;;;;;;;;;;5136229;27;20485;-60
2021/06/17 10:22:58;;;;;;;8.13;6.10;;;;;;;;;;5135493;27;20859;-59
2021/06/17 10:25:27;;;;;;;6.13;5.63;;;;;;;;;;5136055;27;20444;-60
2021/06/17 10:27:57;;;;;;;5.43;4.93;;;;;;;;;;5135499;27;20464;-60
2021/06/17 10:30:40;;;;;;;6.63;5.50;;;;;;;;;;5135692;27;20839;-60
2021/06/17 10:33:07;;;;;;;6.30;5.70;;;;;;;;;;5135479;27;20467;-60
2021/06/17 10:35:35;;;;;;;6.20;5.70;;;;;;;;;;5135393;27;20444;-61
2021/06/17 10:38:05;;;;;;;6.03;5.00;;;;;;;;;;5136818;27;20524;-58
2021/06/17 10:40:35;;;;;;;6.37;5.77;;;;;;;;;;5134945;27;20523;-60
2021/06/17 10:43:19;;;;;;;5.97;5.47;;;;;;;;;;5136003;27;20852;-59
2021/06/17 10:45:47;;;;;;;7.50;5.60;;;;;;;;;;5135306;27;20432;-60
2021/06/17 10:48:21;;;;;;;6.20;5.00;;;;;;;;;;5135070;27;20951;-60
2021/06/17 10:51:07;;;;;;;5.97;5.20;;;;;;;;;;5135546;27;20448;-60
2021/06/17 10:53:52;;;;;;;6.47;5.97;;;;;;;;;;5136285;27;20486;-61
2021/06/17 10:56:21;;;;;;;6.53;6.00;;;;;;;;;;5134993;27;20936;-60
2021/06/17 10:59:03;;;;;;;6.03;5.40;;;;;;;;;;5134700;27;20994;-60
2021/06/17 11:01:39;;;;;;;7.23;5.67;;;;;;;;;;5134924;27;20460;-60
2021/06/17 11:04:11;;;;;;;5.47;5.07;;;;;;;;;;5134817;27;20447;-61
2021/06/17 11:07:02;;;;;;;6.60;6.00;;;;;;;;;;5134469;27;20528;-59
2021/06/17 11:09:52;;;;;;;6.27;5.30;;;;;;;;;;5113959;27;20814;-61
2021/06/17 11:12:40;;;;;;;5.60;5.10;;;;;;;;;;5134411;27;20843;-59
2021/06/17 11:15:08;;;;;;;4.70;4.40;;;;;;;;;;5134053;27;20792;-60
2021/06/17 11:17:42;;;;;;;6.30;5.60;;;;;;;;;;5134039;27;20460;-60
2021/06/17 11:20:11;;;;;;;6.63;5.30;;;;;;;;;;5134336;27;20852;-60
2021/06/17 11:22:40;;;;;;;5.90;5.37;;;;;;;;;;5134590;27;20919;-60
2021/06/17 11:25:20;;;;;;;5.30;4.40;;;;;;;;;;5134144;27;20994;-60
2021/06/17 11:27:57;;;;;;;4.90;4.50;;;;;;;;;;5135126;27;20468;-61
2021/06/17 11:30:39;;;;;;;4.43;3.80;;;;;;;;;;5133496;27;21010;-60
2021/06/17 11:33:21;;;;;;;4.37;4.07;;;;;;;;;;5133683;27;20798;-59
2021/06/17 11:35:50;;;;;;;4.63;4.23;;;;;;;;;;5134016;27;20444;-61
2021/06/17 11:38:22;;;;;;;4.43;4.13;;;;;;;;;;5133854;27;21006;-60
2021/06/17 11:40:51;;;;;;;4.23;3.83;;;;;;;;;;5134321;27;20421;-61
2021/06/17 11:43:22;;;;;;;7.90;4.03;;;;;;;;;;5134262;27;20497;-61
2021/06/17 11:45:49;;;;;;;3.80;3.20;;;;;;;;;;5134003;27;20474;-60
2021/06/17 11:48:17;;;;;;;4.30;3.80;;;;;;;;;;5134148;27;20460;-61
2021/06/17 11:50:44;;;;;;;4.20;3.67;;;;;;;;;;5134071;27;20493;-59
2021/06/17 11:53:16;;;;;;;4.23;3.83;;;;;;;;;;5134318;27;20444;-59
2021/06/17 11:55:46;;;;;;;5.23;3.60;;;;;;;;;;5135204;27;20515;-61
2021/06/17 11:58:15;;;;;;;4.07;3.70;;;;;;;;;;5134334;27;21041;-60
2021/06/17 12:00:42;;;;;;;4.00;3.20;;;;;;;;;;5134394;27;20449;-59
2021/06/17 12:03:16;;;;;;;3.73;3.43;;;;;;;;;;5134247;27;20508;-61
2021/06/17 12:05:43;;;;;;;4.00;3.17;;;;;;;;;;5135013;27;20489;-60
2021/06/17 12:08:10;;;;;;;3.53;3.23;;;;;;;;;;5133964;28;20546;-60
2021/06/17 12:10:41;;;;;;;4.13;3.67;;;;;;;;;;5134137;28;20548;-61
2021/06/17 12:13:10;;;;;;;4.00;3.10;;;;;;;;;;5134386;28;20468;-60
2021/06/17 12:15:40;;;;;;;5.33;3.80;;;;;;;;;;5135232;28;20443;-61
2021/06/17 12:18:08;;;;;;;3.83;3.40;;;;;;;;;;5135725;28;21054;-61
2021/06/17 12:20:36;;;;;;;4.20;3.87;;;;;;;;;;5135791;28;20490;-60
2021/06/17 12:23:08;;;;;;;3.70;3.40;;;;;;;;;;5135558;28;20567;-60
2021/06/17 12:25:37;;;;;;;4.87;3.87;;;;;;;;;;5134640;28;20493;-61
2021/06/17 12:28:05;;;;;;;6.03;3.90;;;;;;;;;;5135231;27;20524;-61
2021/06/17 12:30:34;;;;;;;4.37;3.80;;;;;;;;;;5138805;27;20480;-61
2021/06/17 12:33:10;;;;;;;5.33;3.60;;;;;;;;;;5138609;27;20842;-60
2021/06/17 12:35:39;;;;;;;3.67;3.37;;;;;;;;;;5138570;27;20428;-61
2021/06/17 12:38:06;;;;;;;4.03;3.73;;;;;;;;;;5138590;27;20844;-61
2021/06/17 12:40:35;;;;;;;4.17;3.87;;;;;;;;;;5138761;27;20474;-59
2021/06/17 12:43:09;;;;;;;6.37;3.70;;;;;;;;;;5138429;27;20448;-58
2021/06/17 12:45:37;;;;;;;4.43;3.60;;;;;;;;;;5137835;27;20486;-60
2021/06/17 12:48:12;;;;;;;3.67;3.37;;;;;;;;;;5137913;27;20456;-60
2021/06/17 12:53:26;;;;;;;5.03;4.00;;;;;;;;;;5137617;27;20416;-61
2021/06/17 12:55:54;;;;;;;6.03;4.33;;;;;;;;;;5137594;27;20444;-60
2021/06/17 12:58:23;;;;;;;4.40;4.00;;;;;;;;;;5137444;27;20519;-60
2021/06/17 13:00:59;;;;;;;5.13;3.70;;;;;;;;;;5137597;27;20454;-60
2021/06/17 13:03:27;;;;;;;4.23;3.93;;;;;;;;;;5137321;27;20440;-61
2021/06/17 13:05:56;;;;;;;4.10;3.80;;;;;;;;;;5136801;27;20444;-61
2021/06/17 13:08:25;;;;;;;4.73;4.30;;;;;;;;;;5137463;27;20824;-60
2021/06/17 13:10:53;;;;;;;6.37;3.63;;;;;;;;;;5137004;27;20476;-60
2021/06/17 13:13:22;;;;;;;4.10;3.80;;;;;;;;;;5137000;27;20443;-59
2021/06/17 13:15:50;;;;;;;4.40;4.00;;;;;;;;;;5136692;27;20442;-60
2021/06/17 13:18:17;;;;;;;3.93;3.60;;;;;;;;;;5137151;27;20464;-60
2021/06/17 13:20:46;;;;;;;4.27;3.03;;;;;;;;;;5137564;27;20833;-60
2021/06/17 13:23:17;;;;;;;7.83;4.17;;;;;;;;;;5136537;27;20441;-60
2021/06/17 13:25:45;;;;;;;3.63;3.33;;;;;;;;;;5137511;27;20464;-60
2021/06/17 13:28:35;;;;;;;4.00;3.60;;;;;;;;;;5136890;27;20471;-61
2021/06/17 13:31:03;;;;;;;3.40;3.10;;;;;;;;;;5136788;27;20464;-60
2021/06/17 13:33:30;;;;;;;4.20;3.80;;;;;;;;;;5136507;27;20489;-61
2021/06/17 13:35:58;;;;;;;7.20;3.60;;;;;;;;;;5136371;27;20493;-59
2021/06/17 13:38:26;;;;;;;3.83;3.53;;;;;;;;;;5137539;27;20521;-61
2021/06/17 13:40:55;;;;;;;4.40;4.00;;;;;;;;;;5137846;27;20489;-60
2021/06/17 13:43:22;;;;;;;4.37;4.07;;;;;;;;;;5138010;27;20527;-60
2021/06/17 13:45:49;;;;;;;3.97;3.57;;;;;;;;;;5137903;27;20448;-61
2021/06/17 13:48:17;;;;;;;4.10;3.50;;;;;;;;;;5136777;27;20460;-64
2021/06/17 13:50:44;;;;;;;4.30;3.93;;;;;;;;;;5135962;27;20468;-62
2021/06/17 13:53:12;;;;;;;4.50;4.10;;;;;;;;;;5136402;27;20441;-60
2021/06/17 13:55:41;;;;;;;5.20;4.10;;;;;;;;;;5136595;27;20444;-60
2021/06/17 13:58:10;;;;;;;5.43;4.93;;;;;;;;;;5136342;27;20457;-59
2021/06/17 14:00:37;;;;;;;4.00;3.70;;;;;;;;;;5136094;27;20443;-59
2021/06/17 14:03:05;;;;;;;4.33;3.83;;;;;;;;;;5136481;27;20444;-60
2021/06/17 14:05:33;;;;;;;5.77;4.17;;;;;;;;;;5136285;27;20444;-60
2021/06/17 14:08:00;;;;;;;4.13;3.77;;;;;;;;;;5135839;27;20471;-60
2021/06/17 14:10:28;;;;;;;4.60;3.90;;;;;;;;;;5135882;27;20477;-60
2021/06/17 14:12:57;;;;;;;4.53;3.60;;;;;;;;;;5136102;27;20440;-59
2021/06/17 14:15:24;;;;;;;4.70;3.60;;;;;;;;;;5135501;27;20493;-59
2021/06/17 14:17:52;;;;;;;3.87;3.57;;;;;;;;;;5135368;27;20464;-60
2021/06/17 14:20:20;;;;;;;3.67;3.37;;;;;;;;;;5135904;27;20822;-58
2021/06/17 14:22:47;;;;;;;4.37;3.70;;;;;;;;;;5135390;27;20931;-61
2021/06/17 14:25:14;;;;;;;5.23;4.03;;;;;;;;;;5135644;27;20452;-58
2021/06/17 14:27:43;;;;;;;4.80;3.40;;;;;;;;;;5137082;27;20855;-64
2021/06/17 14:30:13;;;;;;;3.80;3.37;;;;;;;;;;5138000;27;20840;-59
2021/06/17 14:32:40;;;;;;;3.77;3.33;;;;;;;;;;5135750;27;20448;-60
2021/06/17 14:35:08;;;;;;;3.90;3.53;;;;;;;;;;5135395;27;20444;-60
2021/06/17 14:37:35;;;;;;;4.50;3.70;;;;;;;;;;5136261;27;20817;-61
2021/06/17 14:40:04;;;;;;;4.20;3.20;;;;;;;;;;5136147;27;20441;-60
2021/06/17 14:42:32;;;;;;;5.20;3.90;;;;;;;;;;5136294;27;20552;-60
2021/06/17 14:44:59;;;;;;;3.60;3.30;;;;;;;;;;5136474;27;20444;-60
2021/06/17 14:47:28;;;;;;;6.90;3.97;;;;;;;;;;5136441;27;20441;-60
2021/06/17 14:49:55;;;;;;;5.13;3.40;;;;;;;;;;5136466;27;20529;-60